sensor_id;sensor_type;location;lat;lon;timestamp;P1;durP1;ratioP1;P2;durP2;ratioP2
45926;SDS011;31639;47.614;19.684;2022-07-23T00:03:17;5.55;;;1.70;;
45926;SDS011;31639;47.614;19.684;2022-07-23T00:08:18;6.07;;;1.85;;
45926;SDS011;31639;47.614;19.684;2022-07-23T00:13:18;4.20;;;2.33;;
45926;SDS011;31639;47.614;19.684;2022-07-23T00:18:18;2.90;;;2.25;;
45926;SDS011;31639;47.614;19.684;2022-07-23T00:23:19;5.53;;;2.85;;
45926;SDS011;31639;47.614;19.684;2022-07-23T00:28:19;3.13;;;1.80;;
45926;SDS011;31639;47.614;19.684;2022-07-23T00:33:20;10.60;;;2.15;;
45926;SDS011;31639;47.614;19.684;2022-07-23T00:38:20;4.35;;;2.40;;
45926;SDS011;31639;47.614;19.684;2022-07-23T00:43:21;9.27;;;2.70;;
45926;SDS011;31639;47.614;19.684;2022-07-23T00:48:22;2.70;;;1.63;;
45926;SDS011;31639;47.614;19.684;2022-07-23T00:53:22;3.78;;;2.40;;
45926;SDS011;31639;47.614;19.684;2022-07-23T00:58:23;2.88;;;1.60;;
45926;SDS011;31639;47.614;19.684;2022-07-23T01:03:24;2.85;;;2.10;;
45926;SDS011;31639;47.614;19.684;2022-07-23T01:08:24;3.43;;;2.83;;
45926;SDS011;31639;47.614;19.684;2022-07-23T01:13:25;5.47;;;1.67;;
45926;SDS011;31639;47.614;19.684;2022-07-23T01:18:25;5.20;;;2.10;;
45926;SDS011;31639;47.614;19.684;2022-07-23T01:23:26;3.80;;;2.03;;
45926;SDS011;31639;47.614;19.684;2022-07-23T01:28:26;3.73;;;2.13;;
45926;SDS011;31639;47.614;19.684;2022-07-23T01:33:26;6.00;;;3.50;;
45926;SDS011;31639;47.614;19.684;2022-07-23T01:38:27;4.43;;;2.20;;
45926;SDS011;31639;47.614;19.684;2022-07-23T01:43:27;2.57;;;1.90;;
45926;SDS011;31639;47.614;19.684;2022-07-23T01:48:27;3.77;;;1.80;;
45926;SDS011;31639;47.614;19.684;2022-07-23T01:53:28;3.35;;;1.80;;
45926;SDS011;31639;47.614;19.684;2022-07-23T01:58:31;3.25;;;1.98;;
45926;SDS011;31639;47.614;19.684;2022-07-23T02:03:31;6.53;;;2.72;;
45926;SDS011;31639;47.614;19.684;2022-07-23T02:08:32;6.40;;;2.47;;
45926;SDS011;31639;47.614;19.684;2022-07-23T02:13:32;3.07;;;2.00;;
45926;SDS011;31639;47.614;19.684;2022-07-23T02:18:33;4.50;;;2.40;;
45926;SDS011;31639;47.614;19.684;2022-07-23T02:23:33;3.37;;;2.10;;
45926;SDS011;31639;47.614;19.684;2022-07-23T02:28:34;3.03;;;2.33;;
45926;SDS011;31639;47.614;19.684;2022-07-23T02:33:34;3.27;;;1.70;;
45926;SDS011;31639;47.614;19.684;2022-07-23T02:38:35;6.43;;;2.17;;
45926;SDS011;31639;47.614;19.684;2022-07-23T02:43:35;4.53;;;2.47;;
45926;SDS011;31639;47.614;19.684;2022-07-23T02:48:35;3.15;;;1.88;;
45926;SDS011;31639;47.614;19.684;2022-07-23T02:53:36;2.40;;;2.15;;
45926;SDS011;31639;47.614;19.684;2022-07-23T02:58:36;4.40;;;1.60;;
45926;SDS011;31639;47.614;19.684;2022-07-23T03:03:37;4.65;;;2.90;;
45926;SDS011;31639;47.614;19.684;2022-07-23T03:08:37;2.88;;;2.13;;
45926;SDS011;31639;47.614;19.684;2022-07-23T03:13:38;3.20;;;2.23;;
45926;SDS011;31639;47.614;19.684;2022-07-23T03:18:39;4.30;;;2.20;;
45926;SDS011;31639;47.614;19.684;2022-07-23T03:23:40;4.13;;;2.47;;
45926;SDS011;31639;47.614;19.684;2022-07-23T03:28:40;4.67;;;2.40;;
45926;SDS011;31639;47.614;19.684;2022-07-23T03:33:40;2.83;;;1.77;;
45926;SDS011;31639;47.614;19.684;2022-07-23T03:38:41;4.38;;;2.17;;
45926;SDS011;31639;47.614;19.684;2022-07-23T03:43:41;4.43;;;2.30;;
45926;SDS011;31639;47.614;19.684;2022-07-23T03:48:42;6.37;;;2.20;;
45926;SDS011;31639;47.614;19.684;2022-07-23T03:53:42;4.50;;;2.33;;
45926;SDS011;31639;47.614;19.684;2022-07-23T03:58:42;2.83;;;1.80;;
45926;SDS011;31639;47.614;19.684;2022-07-23T04:03:43;2.80;;;1.83;;
45926;SDS011;31639;47.614;19.684;2022-07-23T04:08:43;4.80;;;2.37;;
45926;SDS011;31639;47.614;19.684;2022-07-23T04:13:44;3.20;;;1.88;;
45926;SDS011;31639;47.614;19.684;2022-07-23T04:18:44;3.22;;;1.88;;
45926;SDS011;31639;47.614;19.684;2022-07-23T04:23:45;4.70;;;1.97;;
45926;SDS011;31639;47.614;19.684;2022-07-23T04:28:45;4.38;;;2.00;;
45926;SDS011;31639;47.614;19.684;2022-07-23T04:33:46;3.70;;;2.10;;
45926;SDS011;31639;47.614;19.684;2022-07-23T04:38:46;2.27;;;2.07;;
45926;SDS011;31639;47.614;19.684;2022-07-23T04:43:46;3.60;;;2.22;;
45926;SDS011;31639;47.614;19.684;2022-07-23T04:48:47;2.67;;;2.17;;
45926;SDS011;31639;47.614;19.684;2022-07-23T04:53:47;3.33;;;1.97;;
45926;SDS011;31639;47.614;19.684;2022-07-23T04:58:47;2.30;;;1.60;;
45926;SDS011;31639;47.614;19.684;2022-07-23T05:03:48;5.25;;;2.25;;
45926;SDS011;31639;47.614;19.684;2022-07-23T05:08:48;2.57;;;2.10;;
45926;SDS011;31639;47.614;19.684;2022-07-23T05:13:49;3.08;;;1.98;;
45926;SDS011;31639;47.614;19.684;2022-07-23T05:18:49;4.55;;;2.63;;
45926;SDS011;31639;47.614;19.684;2022-07-23T05:23:49;3.27;;;2.27;;
45926;SDS011;31639;47.614;19.684;2022-07-23T05:28:50;3.83;;;1.73;;
45926;SDS011;31639;47.614;19.684;2022-07-23T05:33:51;3.05;;;2.38;;
45926;SDS011;31639;47.614;19.684;2022-07-23T05:38:51;3.57;;;2.33;;
45926;SDS011;31639;47.614;19.684;2022-07-23T05:43:51;2.57;;;2.13;;
45926;SDS011;31639;47.614;19.684;2022-07-23T05:48:52;2.57;;;2.07;;
45926;SDS011;31639;47.614;19.684;2022-07-23T05:53:52;3.00;;;1.73;;
45926;SDS011;31639;47.614;19.684;2022-07-23T05:58:53;2.47;;;1.77;;
45926;SDS011;31639;47.614;19.684;2022-07-23T06:03:53;3.40;;;2.27;;
45926;SDS011;31639;47.614;19.684;2022-07-23T06:08:53;4.07;;;2.07;;
45926;SDS011;31639;47.614;19.684;2022-07-23T06:13:54;3.75;;;1.90;;
45926;SDS011;31639;47.614;19.684;2022-07-23T06:18:54;4.77;;;2.77;;
45926;SDS011;31639;47.614;19.684;2022-07-23T06:23:55;4.47;;;2.73;;
45926;SDS011;31639;47.614;19.684;2022-07-23T06:28:55;4.70;;;2.33;;
45926;SDS011;31639;47.614;19.684;2022-07-23T06:33:55;3.07;;;1.97;;
45926;SDS011;31639;47.614;19.684;2022-07-23T06:38:56;3.53;;;2.20;;
45926;SDS011;31639;47.614;19.684;2022-07-23T06:43:56;4.13;;;2.80;;
45926;SDS011;31639;47.614;19.684;2022-07-23T06:48:57;2.45;;;2.10;;
45926;SDS011;31639;47.614;19.684;2022-07-23T06:53:57;6.03;;;2.37;;
45926;SDS011;31639;47.614;19.684;2022-07-23T06:58:58;3.17;;;2.33;;
45926;SDS011;31639;47.614;19.684;2022-07-23T07:03:58;3.60;;;2.30;;
45926;SDS011;31639;47.614;19.684;2022-07-23T07:08:59;4.03;;;2.20;;
45926;SDS011;31639;47.614;19.684;2022-07-23T07:13:59;3.23;;;2.10;;
45926;SDS011;31639;47.614;19.684;2022-07-23T07:19:00;2.70;;;2.10;;
45926;SDS011;31639;47.614;19.684;2022-07-23T07:24:01;3.92;;;2.55;;
45926;SDS011;31639;47.614;19.684;2022-07-23T07:29:02;2.78;;;2.25;;
45926;SDS011;31639;47.614;19.684;2022-07-23T07:34:02;2.80;;;1.95;;
45926;SDS011;31639;47.614;19.684;2022-07-23T07:39:03;4.10;;;2.22;;
45926;SDS011;31639;47.614;19.684;2022-07-23T07:44:04;4.75;;;2.42;;
45926;SDS011;31639;47.614;19.684;2022-07-23T07:49:05;2.07;;;1.80;;
45926;SDS011;31639;47.614;19.684;2022-07-23T07:54:05;3.37;;;2.00;;
45926;SDS011;31639;47.614;19.684;2022-07-23T07:59:05;3.60;;;1.93;;
45926;SDS011;31639;47.614;19.684;2022-07-23T08:04:06;4.20;;;2.17;;
45926;SDS011;31639;47.614;19.684;2022-07-23T08:09:06;5.03;;;1.98;;
45926;SDS011;31639;47.614;19.684;2022-07-23T08:14:07;3.43;;;2.27;;
45926;SDS011;31639;47.614;19.684;2022-07-23T08:19:07;3.17;;;1.83;;
45926;SDS011;31639;47.614;19.684;2022-07-23T08:24:08;2.47;;;1.93;;
45926;SDS011;31639;47.614;19.684;2022-07-23T08:29:08;2.85;;;1.98;;
45926;SDS011;31639;47.614;19.684;2022-07-23T08:34:09;3.92;;;1.83;;
45926;SDS011;31639;47.614;19.684;2022-07-23T08:39:10;2.40;;;2.00;;
45926;SDS011;31639;47.614;19.684;2022-07-23T08:44:10;12.83;;;2.10;;
45926;SDS011;31639;47.614;19.684;2022-07-23T08:49:11;2.55;;;1.70;;
45926;SDS011;31639;47.614;19.684;2022-07-23T08:54:12;3.40;;;2.63;;
45926;SDS011;31639;47.614;19.684;2022-07-23T08:59:13;3.05;;;2.25;;
45926;SDS011;31639;47.614;19.684;2022-07-23T09:04:14;2.55;;;1.95;;
45926;SDS011;31639;47.614;19.684;2022-07-23T09:09:18;2.83;;;2.00;;
45926;SDS011;31639;47.614;19.684;2022-07-23T09:14:35;2.33;;;2.00;;
45926;SDS011;31639;47.614;19.684;2022-07-23T09:19:43;2.45;;;1.85;;
45926;SDS011;31639;47.614;19.684;2022-07-23T09:30:17;2.45;;;1.98;;
45926;SDS011;31639;47.614;19.684;2022-07-23T09:35:18;3.53;;;2.15;;
45926;SDS011;31639;47.614;19.684;2022-07-23T09:40:18;2.90;;;1.87;;
45926;SDS011;31639;47.614;19.684;2022-07-23T09:45:19;2.25;;;1.70;;
45926;SDS011;31639;47.614;19.684;2022-07-23T09:50:19;3.10;;;1.70;;
45926;SDS011;31639;47.614;19.684;2022-07-23T09:55:21;2.90;;;2.03;;
45926;SDS011;31639;47.614;19.684;2022-07-23T10:00:35;2.58;;;1.80;;
45926;SDS011;31639;47.614;19.684;2022-07-23T10:05:36;3.20;;;1.98;;
45926;SDS011;31639;47.614;19.684;2022-07-23T10:10:40;2.53;;;1.90;;
45926;SDS011;31639;47.614;19.684;2022-07-23T10:15:41;2.50;;;1.80;;
45926;SDS011;31639;47.614;19.684;2022-07-23T10:20:42;2.35;;;1.65;;
45926;SDS011;31639;47.614;19.684;2022-07-23T10:25:48;3.63;;;2.30;;
45926;SDS011;31639;47.614;19.684;2022-07-23T10:31:07;6.88;;;1.92;;
45926;SDS011;31639;47.614;19.684;2022-07-23T10:47:33;2.22;;;2.03;;
45926;SDS011;31639;47.614;19.684;2022-07-23T10:52:36;3.83;;;2.40;;
45926;SDS011;31639;47.614;19.684;2022-07-23T10:57:47;2.43;;;1.90;;
45926;SDS011;31639;47.614;19.684;2022-07-23T11:02:50;3.33;;;2.42;;
45926;SDS011;31639;47.614;19.684;2022-07-23T11:29:36;2.08;;;1.88;;
45926;SDS011;31639;47.614;19.684;2022-07-23T11:34:35;3.72;;;3.17;;
45926;SDS011;31639;47.614;19.684;2022-07-23T11:39:38;4.55;;;2.38;;
45926;SDS011;31639;47.614;19.684;2022-07-23T11:44:39;3.08;;;2.50;;
45926;SDS011;31639;47.614;19.684;2022-07-23T11:49:51;2.50;;;2.30;;
45926;SDS011;31639;47.614;19.684;2022-07-23T12:00:02;4.47;;;2.47;;
45926;SDS011;31639;47.614;19.684;2022-07-23T12:05:14;2.78;;;2.47;;
45926;SDS011;31639;47.614;19.684;2022-07-23T12:10:21;2.83;;;2.33;;
45926;SDS011;31639;47.614;19.684;2022-07-23T12:15:29;2.92;;;2.47;;
45926;SDS011;31639;47.614;19.684;2022-07-23T12:20:55;3.42;;;2.40;;
45926;SDS011;31639;47.614;19.684;2022-07-23T12:26:00;2.80;;;2.45;;
45926;SDS011;31639;47.614;19.684;2022-07-23T12:31:02;2.28;;;2.08;;
45926;SDS011;31639;47.614;19.684;2022-07-23T12:36:06;4.15;;;3.35;;
45926;SDS011;31639;47.614;19.684;2022-07-23T12:41:09;4.35;;;2.42;;
45926;SDS011;31639;47.614;19.684;2022-07-23T12:46:11;3.15;;;2.70;;
45926;SDS011;31639;47.614;19.684;2022-07-23T12:56:26;8.05;;;3.65;;
45926;SDS011;31639;47.614;19.684;2022-07-23T13:06:32;4.65;;;3.28;;
45926;SDS011;31639;47.614;19.684;2022-07-23T13:11:34;3.00;;;2.70;;
45926;SDS011;31639;47.614;19.684;2022-07-23T13:16:35;3.03;;;2.55;;
45926;SDS011;31639;47.614;19.684;2022-07-23T13:21:36;3.77;;;3.17;;
45926;SDS011;31639;47.614;19.684;2022-07-23T13:26:36;4.13;;;3.73;;
45926;SDS011;31639;47.614;19.684;2022-07-23T13:31:37;4.90;;;3.37;;
45926;SDS011;31639;47.614;19.684;2022-07-23T13:36:38;3.20;;;2.90;;
45926;SDS011;31639;47.614;19.684;2022-07-23T13:41:38;6.28;;;4.13;;
45926;SDS011;31639;47.614;19.684;2022-07-23T13:46:39;2.73;;;2.53;;
45926;SDS011;31639;47.614;19.684;2022-07-23T13:51:39;3.53;;;2.60;;
45926;SDS011;31639;47.614;19.684;2022-07-23T13:56:39;2.60;;;1.90;;
45926;SDS011;31639;47.614;19.684;2022-07-23T14:01:40;5.03;;;2.80;;
45926;SDS011;31639;47.614;19.684;2022-07-23T14:06:40;8.60;;;2.33;;
45926;SDS011;31639;47.614;19.684;2022-07-23T14:11:41;3.23;;;2.77;;
45926;SDS011;31639;47.614;19.684;2022-07-23T14:16:41;2.57;;;2.37;;
45926;SDS011;31639;47.614;19.684;2022-07-23T14:21:41;2.33;;;1.93;;
45926;SDS011;31639;47.614;19.684;2022-07-23T14:26:42;3.57;;;2.43;;
45926;SDS011;31639;47.614;19.684;2022-07-23T14:31:43;3.77;;;2.70;;
45926;SDS011;31639;47.614;19.684;2022-07-23T14:36:43;3.03;;;2.60;;
45926;SDS011;31639;47.614;19.684;2022-07-23T14:41:44;4.83;;;2.30;;
45926;SDS011;31639;47.614;19.684;2022-07-23T14:46:44;2.20;;;1.90;;
45926;SDS011;31639;47.614;19.684;2022-07-23T14:51:45;2.57;;;2.37;;
45926;SDS011;31639;47.614;19.684;2022-07-23T14:56:45;2.60;;;2.07;;
45926;SDS011;31639;47.614;19.684;2022-07-23T15:01:46;2.50;;;1.75;;
45926;SDS011;31639;47.614;19.684;2022-07-23T15:06:47;4.20;;;2.20;;
45926;SDS011;31639;47.614;19.684;2022-07-23T15:11:48;2.40;;;2.00;;
45926;SDS011;31639;47.614;19.684;2022-07-23T15:16:48;2.93;;;2.07;;
45926;SDS011;31639;47.614;19.684;2022-07-23T15:21:49;2.65;;;2.03;;
45926;SDS011;31639;47.614;19.684;2022-07-23T15:26:49;3.80;;;2.17;;
45926;SDS011;31639;47.614;19.684;2022-07-23T15:31:50;2.88;;;1.92;;
45926;SDS011;31639;47.614;19.684;2022-07-23T15:36:50;2.63;;;1.93;;
45926;SDS011;31639;47.614;19.684;2022-07-23T15:41:51;2.43;;;2.00;;
45926;SDS011;31639;47.614;19.684;2022-07-23T15:46:51;2.80;;;2.07;;
45926;SDS011;31639;47.614;19.684;2022-07-23T15:51:52;3.33;;;2.20;;
45926;SDS011;31639;47.614;19.684;2022-07-23T15:56:52;2.40;;;2.13;;
45926;SDS011;31639;47.614;19.684;2022-07-23T16:01:53;3.00;;;1.88;;
45926;SDS011;31639;47.614;19.684;2022-07-23T16:06:53;3.20;;;2.37;;
45926;SDS011;31639;47.614;19.684;2022-07-23T16:11:54;2.28;;;1.92;;
45926;SDS011;31639;47.614;19.684;2022-07-23T16:16:55;5.07;;;2.30;;
45926;SDS011;31639;47.614;19.684;2022-07-23T16:21:55;2.97;;;2.17;;
45926;SDS011;31639;47.614;19.684;2022-07-23T16:26:56;2.95;;;2.58;;
45926;SDS011;31639;47.614;19.684;2022-07-23T16:31:56;4.93;;;2.20;;
45926;SDS011;31639;47.614;19.684;2022-07-23T16:36:57;2.00;;;1.80;;
45926;SDS011;31639;47.614;19.684;2022-07-23T16:41:57;9.80;;;4.93;;
45926;SDS011;31639;47.614;19.684;2022-07-23T16:46:57;6.23;;;3.80;;
45926;SDS011;31639;47.614;19.684;2022-07-23T16:51:58;5.13;;;3.80;;
45926;SDS011;31639;47.614;19.684;2022-07-23T16:56:58;5.50;;;3.70;;
45926;SDS011;31639;47.614;19.684;2022-07-23T17:01:59;4.75;;;3.60;;
45926;SDS011;31639;47.614;19.684;2022-07-23T17:06:59;4.90;;;3.35;;
45926;SDS011;31639;47.614;19.684;2022-07-23T17:12:02;6.20;;;3.40;;
45926;SDS011;31639;47.614;19.684;2022-07-23T17:17:04;40.88;;;7.20;;
45926;SDS011;31639;47.614;19.684;2022-07-23T17:22:04;7.75;;;3.13;;
45926;SDS011;31639;47.614;19.684;2022-07-23T17:27:05;5.97;;;3.83;;
45926;SDS011;31639;47.614;19.684;2022-07-23T17:32:05;9.48;;;4.60;;
45926;SDS011;31639;47.614;19.684;2022-07-23T17:37:06;10.80;;;4.57;;
45926;SDS011;31639;47.614;19.684;2022-07-23T17:42:06;6.10;;;4.50;;
45926;SDS011;31639;47.614;19.684;2022-07-23T17:47:07;9.37;;;3.77;;
45926;SDS011;31639;47.614;19.684;2022-07-23T17:52:07;6.40;;;4.45;;
45926;SDS011;31639;47.614;19.684;2022-07-23T17:57:08;6.17;;;4.07;;
45926;SDS011;31639;47.614;19.684;2022-07-23T18:02:09;6.25;;;4.38;;
45926;SDS011;31639;47.614;19.684;2022-07-23T18:07:10;6.70;;;4.65;;
45926;SDS011;31639;47.614;19.684;2022-07-23T18:12:10;6.20;;;5.07;;
45926;SDS011;31639;47.614;19.684;2022-07-23T18:17:10;5.70;;;3.67;;
45926;SDS011;31639;47.614;19.684;2022-07-23T18:22:11;7.25;;;4.47;;
45926;SDS011;31639;47.614;19.684;2022-07-23T18:27:12;5.22;;;4.72;;
45926;SDS011;31639;47.614;19.684;2022-07-23T18:32:12;10.45;;;4.28;;
45926;SDS011;31639;47.614;19.684;2022-07-23T18:37:13;6.20;;;4.10;;
45926;SDS011;31639;47.614;19.684;2022-07-23T18:42:13;7.75;;;4.38;;
45926;SDS011;31639;47.614;19.684;2022-07-23T18:47:14;6.13;;;4.68;;
45926;SDS011;31639;47.614;19.684;2022-07-23T18:52:14;5.80;;;5.20;;
45926;SDS011;31639;47.614;19.684;2022-07-23T18:57:15;5.50;;;4.20;;
45926;SDS011;31639;47.614;19.684;2022-07-23T19:02:15;6.30;;;4.00;;
45926;SDS011;31639;47.614;19.684;2022-07-23T19:07:17;5.30;;;4.30;;
45926;SDS011;31639;47.614;19.684;2022-07-23T19:12:17;6.20;;;4.30;;
45926;SDS011;31639;47.614;19.684;2022-07-23T19:17:17;5.22;;;3.60;;
45926;SDS011;31639;47.614;19.684;2022-07-23T19:22:18;7.10;;;3.95;;
45926;SDS011;31639;47.614;19.684;2022-07-23T19:27:18;6.05;;;4.53;;
45926;SDS011;31639;47.614;19.684;2022-07-23T19:32:19;7.53;;;4.82;;
45926;SDS011;31639;47.614;19.684;2022-07-23T19:37:19;5.63;;;3.95;;
45926;SDS011;31639;47.614;19.684;2022-07-23T19:42:20;6.88;;;4.00;;
45926;SDS011;31639;47.614;19.684;2022-07-23T19:47:21;7.40;;;4.50;;
45926;SDS011;31639;47.614;19.684;2022-07-23T19:52:21;4.93;;;4.10;;
45926;SDS011;31639;47.614;19.684;2022-07-23T19:57:22;7.43;;;4.33;;
45926;SDS011;31639;47.614;19.684;2022-07-23T20:02:22;6.83;;;4.63;;
45926;SDS011;31639;47.614;19.684;2022-07-23T20:07:22;4.77;;;3.53;;
45926;SDS011;31639;47.614;19.684;2022-07-23T20:12:23;6.78;;;4.15;;
45926;SDS011;31639;47.614;19.684;2022-07-23T20:17:23;8.23;;;4.93;;
45926;SDS011;31639;47.614;19.684;2022-07-23T20:22:24;8.73;;;4.97;;
45926;SDS011;31639;47.614;19.684;2022-07-23T20:27:24;7.85;;;5.20;;
45926;SDS011;31639;47.614;19.684;2022-07-23T20:32:25;8.70;;;4.60;;
45926;SDS011;31639;47.614;19.684;2022-07-23T20:37:25;5.82;;;4.25;;
45926;SDS011;31639;47.614;19.684;2022-07-23T20:42:26;7.43;;;4.32;;
45926;SDS011;31639;47.614;19.684;2022-07-23T20:47:26;6.10;;;4.15;;
45926;SDS011;31639;47.614;19.684;2022-07-23T20:52:27;6.90;;;4.60;;
45926;SDS011;31639;47.614;19.684;2022-07-23T20:57:28;9.25;;;5.07;;
45926;SDS011;31639;47.614;19.684;2022-07-23T21:02:28;6.88;;;4.78;;
45926;SDS011;31639;47.614;19.684;2022-07-23T21:07:29;6.85;;;5.22;;
45926;SDS011;31639;47.614;19.684;2022-07-23T21:12:30;5.43;;;4.53;;
45926;SDS011;31639;47.614;19.684;2022-07-23T21:17:30;6.13;;;4.60;;
45926;SDS011;31639;47.614;19.684;2022-07-23T21:22:30;7.03;;;5.25;;
45926;SDS011;31639;47.614;19.684;2022-07-23T21:27:31;6.60;;;4.70;;
45926;SDS011;31639;47.614;19.684;2022-07-23T21:32:31;10.50;;;5.20;;
45926;SDS011;31639;47.614;19.684;2022-07-23T21:37:32;6.72;;;4.60;;
45926;SDS011;31639;47.614;19.684;2022-07-23T21:42:32;7.40;;;4.63;;
45926;SDS011;31639;47.614;19.684;2022-07-23T21:47:33;8.77;;;4.13;;
45926;SDS011;31639;47.614;19.684;2022-07-23T21:52:33;6.10;;;3.87;;
45926;SDS011;31639;47.614;19.684;2022-07-23T21:57:34;5.72;;;3.85;;
45926;SDS011;31639;47.614;19.684;2022-07-23T22:02:36;5.43;;;3.92;;
45926;SDS011;31639;47.614;19.684;2022-07-23T22:07:36;6.17;;;3.57;;
45926;SDS011;31639;47.614;19.684;2022-07-23T22:12:37;5.97;;;3.90;;
45926;SDS011;31639;47.614;19.684;2022-07-23T22:17:38;7.05;;;4.03;;
45926;SDS011;31639;47.614;19.684;2022-07-23T22:22:40;6.82;;;4.32;;
45926;SDS011;31639;47.614;19.684;2022-07-23T22:27:42;7.10;;;3.28;;
45926;SDS011;31639;47.614;19.684;2022-07-23T22:32:43;4.20;;;3.72;;
45926;SDS011;31639;47.614;19.684;2022-07-23T22:37:44;6.07;;;3.92;;
45926;SDS011;31639;47.614;19.684;2022-07-23T22:42:45;6.00;;;4.10;;
45926;SDS011;31639;47.614;19.684;2022-07-23T22:47:46;5.63;;;3.33;;
45926;SDS011;31639;47.614;19.684;2022-07-23T22:52:46;5.83;;;4.17;;
45926;SDS011;31639;47.614;19.684;2022-07-23T22:57:46;4.83;;;3.50;;
45926;SDS011;31639;47.614;19.684;2022-07-23T23:02:47;7.13;;;3.87;;
45926;SDS011;31639;47.614;19.684;2022-07-23T23:07:48;7.25;;;4.50;;
45926;SDS011;31639;47.614;19.684;2022-07-23T23:12:48;5.37;;;4.30;;
45926;SDS011;31639;47.614;19.684;2022-07-23T23:17:49;6.32;;;3.97;;
45926;SDS011;31639;47.614;19.684;2022-07-23T23:22:49;5.73;;;3.60;;
45926;SDS011;31639;47.614;19.684;2022-07-23T23:27:49;7.60;;;4.03;;
45926;SDS011;31639;47.614;19.684;2022-07-23T23:32:50;8.02;;;4.00;;
45926;SDS011;31639;47.614;19.684;2022-07-23T23:37:50;7.95;;;3.65;;
45926;SDS011;31639;47.614;19.684;2022-07-23T23:42:51;7.23;;;4.13;;
45926;SDS011;31639;47.614;19.684;2022-07-23T23:47:51;6.27;;;4.43;;
45926;SDS011;31639;47.614;19.684;2022-07-23T23:52:52;8.77;;;4.60;;
45926;SDS011;31639;47.614;19.684;2022-07-23T23:57:52;4.77;;;3.37;;
